ASN logo
Last updated: 5 July 2020
Statuts:Enquête Officielle
Date:lundi 16 janvier 2017
Heure:11:59
Type/Sous-type:Silhouette image of generic C525 model; specific model in this crash may look slightly different
Cessna 525C Citation CJ4
Compagnie:Zeliff Aviation LLC
Immatriculation: N525PZ
Numéro de série: 525C-0196
Année de Fabrication: 2015
Heures de vol:320
Moteurs: 2 Williams International FJ44-4A
Equipage:victimes: 0 / à bord: 1
Passagers:victimes: 0 / à bord: 0
Total:victimes: 0 / à bord: 1
Dégats de l'appareil: Perte Totale
Conséquences: Written off (damaged beyond repair)
Lieu de l'accident:Howell-Livingston County Spencer J. Hardy Airport, MI (   Etats-Unis d'Amérique)
Phase de vol: A l'atterrissage (LDG)
Nature:Affaires
Aéroport de départ:Batavia-Genesee County Airport, NY (KGVQ), Etats-Unis d'Amérique
Aéroport de destination:Howell-Livingston County Spencer J. Hardy Airport, MI (KOZW), Etats-Unis d'Amérique
Détails:
A Cessna 525C Citation CJ4 corporate jet suffered an apparent runway excursion on landing at Howell-Livingston County Airport, Michigan, USA. The pilot survived the accident.
The airplane departed Batavia-Genesee County Airport, New York, at 10:57 hours local time. The flight landed on runway 13 at 11:59 hours. An eyewitness reported that the aircraft travelled past the end of the runway over about 390 m of airport terrain before it crossed Tooley Road. The wings were torn off and the fuselage came to rest inverted.
Runway 13 is a 5002 ft (1525 m) long runway.

Probable Cause:

PROBABLE CAUSE: "The pilot's attempted landing on the ice-covered runway, which resulted in a runway excursion and impact with terrain. Contributing to the accident was airport personnel's lack of training regarding issuance of NOTAMs."

Accident investigation:
cover
Investigating agency: NTSB
Status: Investigation completed
Duration: 2 years and 10 months
Accident number: CEN17LA078
Download report: Final report

Sources:
» WHMI
» Flightaware.com
» NTSB

METAR Weather report:
16:35 UTC / 11:35 local time:
KOZW 161635Z AUTO 15005KT 3SM -SN OVC065 M01/M03 A3031 RMK AO2 T10071031

16:54 UTC / 11:54 local time:
KOZW 161654Z AUTO 13004KT 3SM -SN OVC055 M01/M03 A3028 RMK AO2 T10071029

17:14 UTC / 12:14 local time:
KOZW 161714Z AUTO 14004KT 3SM -SN SCT050 OVC060 M01/M02 A3028 RMK AO2 P0001 T10061025


Photos

Add your photo of this accident or aircraft

Video, social media

Plan
This map shows the airport of departure and the intended destination of the flight. The line is connecting ADS-B datapoints from FlightAware.
La distance entre Batavia-Genesee County Airport, NY et Howell-Livingston County Spencer J. Hardy Airport, MI est de 473 km (296 miles).
Accident location: Approximate; accuracy within a few kilometers.

Les informations ci-dessus ne représentent pas l'opinion de la 'Flight Safety Foundation' ou de 'Aviation Safety Network' sur les causes de l'accident. Ces informations prélimimaires sont basées sur les faits tel qu'ils sont connus à ce jour.
languages: languages

Share